Time;durP1;ratioP1;P1;durP2;ratioP2;P2;SDS_P1;SDS_P2;PMS_P1;PMS_P2;Temp;Humidity;BMP_temperature;BMP_pressure;BME280_temperature;BME280_humidity;BME280_pressure;Samples;Min_cycle;Max_cycle;Signal;HPM_P1;HPM_P2
2021/11/04 00:01:04;;;;;;;14.03;12.53;;;6.90;99.90;;;7.83;100.00;96377.38;5182160;28;20222;-61
2021/11/04 00:03:42;;;;;;;14.40;12.90;;;7.00;99.90;;;7.88;100.00;96358.13;5176355;28;20195;-61
2021/11/04 00:06:16;;;;;;;12.73;11.53;;;7.10;99.90;;;7.89;100.00;96348.00;5187435;28;20206;-61
2021/11/04 00:08:49;;;;;;;13.70;12.30;;;7.10;99.90;;;7.93;100.00;96346.47;5197391;28;20587;-61
2021/11/04 00:11:22;;;;;;;14.23;12.60;;;7.10;99.90;;;7.99;100.00;96341.63;5181923;28;20226;-61
2021/11/04 00:13:55;;;;;;;14.73;13.20;;;7.10;99.90;;;7.96;100.00;96338.09;5182984;28;20202;-62
2021/11/04 00:16:28;;;;;;;15.37;13.97;;;7.20;99.90;;;8.00;100.00;96343.38;5187297;28;20211;-61
2021/11/04 00:19:01;;;;;;;14.23;12.93;;;7.10;99.90;;;8.04;100.00;96340.16;5201502;28;20285;-61
2021/11/04 00:21:36;;;;;;;14.43;13.10;;;7.10;99.90;;;8.03;100.00;96329.91;5184085;28;20224;-62
2021/11/04 00:24:09;;;;;;;14.57;13.17;;;7.10;99.90;;;8.05;100.00;96323.22;5180548;28;20202;-61
2021/11/04 00:26:42;;;;;;;13.43;12.13;;;7.10;99.90;;;8.03;100.00;96324.81;5186677;28;20297;-62
2021/11/04 00:29:15;;;;;;;15.80;14.20;;;7.10;99.90;;;7.97;100.00;96335.59;5182598;28;20473;-61
2021/11/04 00:31:48;;;;;;;15.07;13.63;;;7.10;99.90;;;7.96;100.00;96322.84;5182274;28;20230;-61
2021/11/04 00:34:21;;;;;;;13.13;12.03;;;7.10;99.90;;;7.95;100.00;96321.94;5189395;28;20210;-61
2021/11/04 00:36:56;;;;;;;15.07;13.70;;;7.10;99.90;;;7.94;100.00;96314.25;5183757;28;20195;-61
2021/11/04 00:39:29;;;;;;;13.87;12.47;;;7.10;99.90;;;7.78;100.00;96320.38;5190884;28;20202;-62
2021/11/04 00:42:03;;;;;;;14.53;13.03;;;6.90;99.90;;;7.82;100.00;96324.78;5184608;28;20203;-61
2021/11/04 00:44:36;;;;;;;15.17;13.77;;;7.00;99.90;;;7.91;100.00;96330.25;5186570;28;20198;-61
2021/11/04 00:47:09;;;;;;;16.60;15.00;;;7.00;99.90;;;7.97;100.00;96340.69;5188359;28;20195;-61
2021/11/04 00:49:42;;;;;;;14.07;12.73;;;7.10;99.90;;;7.99;100.00;96338.22;5182467;28;20683;-61
2021/11/04 00:52:17;;;;;;;13.00;11.80;;;7.10;99.90;;;7.95;100.00;96334.66;5181941;28;20217;-61
2021/11/04 00:54:50;;;;;;;13.53;12.23;;;7.10;99.90;;;7.98;100.00;96337.34;5186414;28;20198;-61
2021/11/04 00:57:23;;;;;;;17.67;15.77;;;7.10;99.90;;;7.99;100.00;96338.22;5194233;28;20213;-62
2021/11/04 00:59:57;;;;;;;17.93;16.10;;;7.20;99.90;;;8.00;100.00;96342.50;5180851;28;20219;-61
2021/11/04 01:02:30;;;;;;;15.70;14.10;;;7.20;99.90;;;8.04;100.00;96363.06;5185643;28;20198;-62
2021/11/04 01:05:03;;;;;;;15.97;14.27;;;7.20;99.90;;;8.08;100.00;96375.09;5185907;28;20653;-60
2021/11/04 01:07:38;;;;;;;20.23;18.00;;;7.20;99.90;;;8.15;100.00;96377.91;5184168;28;20206;-61
2021/11/04 01:10:11;;;;;;;17.63;15.90;;;7.20;99.90;;;8.07;100.00;96375.06;5192813;28;20707;-61
2021/11/04 01:12:46;;;;;;;15.50;14.00;;;7.20;99.90;;;8.08;100.00;96364.91;5193585;28;20294;-61
2021/11/04 01:15:19;;;;;;;14.10;12.70;;;7.20;99.90;;;8.08;100.00;96359.81;5185128;28;20204;-62
2021/11/04 01:17:53;;;;;;;13.60;12.13;;;7.20;99.90;;;8.11;100.00;96380.31;5185417;28;20281;-62
2021/11/04 01:20:26;;;;;;;13.97;12.67;;;7.20;99.90;;;8.11;100.00;96377.75;5178555;28;20237;-62
2021/11/04 01:23:01;;;;;;;13.67;12.33;;;7.20;99.90;;;8.09;100.00;96366.66;5188356;28;20198;-62
2021/11/04 01:25:34;;;;;;;14.30;12.83;;;7.20;99.90;;;8.10;100.00;96363.31;5185424;28;20709;-62
2021/11/04 01:28:08;;;;;;;13.37;12.10;;;7.10;99.90;;;8.07;100.00;96363.19;5186771;28;20313;-62
2021/11/04 01:30:42;;;;;;;14.23;12.93;;;7.10;99.90;;;8.07;100.00;96353.00;5189001;28;20225;-62
2021/11/04 01:33:15;;;;;;;14.93;13.53;;;7.20;99.90;;;8.08;100.00;96354.75;5190047;28;20202;-62
2021/11/04 01:35:48;;;;;;;14.40;13.00;;;7.20;99.90;;;8.09;100.00;96335.25;5188733;28;20195;-62
2021/11/04 01:38:23;;;;;;;14.57;13.27;;;7.20;99.90;;;8.13;100.00;96332.03;5187645;28;20294;-62
2021/11/04 01:40:56;;;;;;;13.67;12.37;;;7.20;99.90;;;8.15;100.00;96324.44;5185417;28;20746;-61
2021/11/04 01:43:29;;;;;;;12.70;11.50;;;7.10;99.90;;;8.15;100.00;96320.22;5185848;28;20231;-62
2021/11/04 01:46:03;;;;;;;12.60;11.40;;;7.20;99.90;;;8.13;100.00;96315.09;5185391;28;20584;-62
2021/11/04 01:48:36;;;;;;;13.87;12.47;;;7.10;99.90;;;8.10;100.00;96316.66;5184587;28;20222;-62
2021/11/04 01:51:10;;;;;;;12.97;11.67;;;7.10;99.90;;;8.11;100.00;96321.78;5184537;28;20222;-61
2021/11/04 01:53:45;;;;;;;12.60;11.40;;;7.10;99.90;;;8.08;100.00;96320.78;5185476;28;20202;-62
2021/11/04 01:56:19;;;;;;;13.43;12.13;;;7.10;99.90;;;8.08;100.00;96334.38;5187617;28;20563;-61
2021/11/04 01:58:52;;;;;;;13.20;11.80;;;7.10;99.90;;;8.04;100.00;96330.00;5184933;28;20201;-62
2021/11/04 02:01:25;;;;;;;13.83;12.43;;;7.10;99.90;;;8.05;100.00;96329.16;5184663;28;20226;-61
2021/11/04 02:04:05;;;;;;;14.63;13.13;;;7.10;99.90;;;8.00;100.00;96330.66;5185070;28;20213;-62
2021/11/04 02:06:51;;;;;;;12.83;11.53;;;7.10;99.90;;;7.97;100.00;96330.53;5192313;28;20203;-62
2021/11/04 02:09:31;;;;;;;12.37;11.17;;;7.10;99.90;;;7.95;100.00;96333.78;5183165;28;20213;-61
2021/11/04 02:12:13;;;;;;;13.50;12.23;;;7.10;99.90;;;7.98;100.00;96334.78;5184454;28;20194;-61
2021/11/04 02:14:55;;;;;;;13.90;12.43;;;7.10;99.90;;;8.01;100.00;96340.03;5184366;28;20206;-61
2021/11/04 02:17:30;;;;;;;13.20;11.80;;;7.10;99.90;;;8.02;100.00;96339.22;5182698;28;20210;-62
2021/11/04 02:20:06;;;;;;;12.37;11.17;;;7.00;99.90;;;7.99;100.00;96346.72;5189343;28;20221;-62
2021/11/04 02:22:58;;;;;;;12.93;11.70;;;7.00;99.90;;;7.99;100.00;96354.34;5193012;28;20202;-62
2021/11/04 02:25:34;;;;;;;12.77;11.47;;;7.00;99.90;;;7.97;100.00;96350.88;5189340;28;20198;-62
2021/11/04 02:28:12;;;;;;;14.30;12.80;;;7.00;99.90;;;7.96;100.00;96358.44;5195571;28;20666;-62
2021/11/04 02:30:47;;;;;;;12.40;11.10;;;7.00;99.90;;;7.94;100.00;96363.47;5189829;28;20620;-62
2021/11/04 02:33:23;;;;;;;14.90;13.40;;;7.00;99.90;;;7.89;100.00;96362.38;5194741;28;20212;-62
2021/11/04 02:35:58;;;;;;;14.47;13.07;;;7.00;99.90;;;7.93;100.00;96363.41;5197144;28;20290;-62
2021/11/04 02:38:32;;;;;;;12.93;11.63;;;7.10;99.90;;;7.90;100.00;96364.16;5192954;28;20198;-62
2021/11/04 02:41:08;;;;;;;13.03;11.77;;;7.00;99.90;;;7.96;100.00;96369.50;5182878;28;20775;-62
2021/11/04 02:43:42;;;;;;;13.77;12.47;;;7.10;99.90;;;7.97;100.00;96376.31;5188546;28;20208;-62
2021/11/04 02:46:16;;;;;;;13.30;12.10;;;7.10;99.90;;;8.00;100.00;96376.44;5196230;28;20217;-62
2021/11/04 02:48:49;;;;;;;14.43;13.03;;;7.10;99.90;;;8.01;100.00;96373.09;5187960;28;20257;-62
2021/11/04 02:51:23;;;;;;;14.47;13.07;;;7.10;99.90;;;8.04;100.00;96388.50;5193360;28;20225;-62
2021/11/04 02:53:56;;;;;;;14.87;13.40;;;7.20;99.90;;;8.06;100.00;96381.78;5193870;28;20206;-62
2021/11/04 02:56:48;;;;;;;16.30;14.60;;;7.20;99.90;;;8.07;100.00;96378.47;5178783;28;20199;-61
2021/11/04 02:59:24;;;;;;;16.07;14.47;;;7.10;99.90;;;8.05;100.00;96379.19;5182540;28;20294;-62
2021/11/04 03:02:00;;;;;;;16.03;14.23;;;7.10;99.90;;;8.03;100.00;96384.19;5182321;28;20198;-62
2021/11/04 03:04:33;;;;;;;15.00;13.40;;;7.10;99.90;;;7.99;100.00;96381.47;5186163;28;20584;-61
2021/11/04 03:07:07;;;;;;;14.20;12.70;;;7.10;99.90;;;8.01;100.00;96388.38;5180928;28;20202;-62
2021/11/04 03:09:40;;;;;;;15.07;13.57;;;7.10;99.90;;;8.00;100.00;96386.63;5183485;28;20596;-61
2021/11/04 03:12:14;;;;;;;14.33;12.93;;;7.10;99.90;;;7.96;100.00;96384.75;5181071;28;20207;-62
2021/11/04 03:14:49;;;;;;;7.03;6.53;;;7.00;99.90;;;7.82;100.00;96380.75;5187636;28;20200;-63
2021/11/04 03:17:22;;;;;;;6.10;5.60;;;6.80;99.90;;;7.67;100.00;96386.91;5182884;28;20197;-62
2021/11/04 03:19:56;;;;;;;4.37;4.17;;;6.50;99.90;;;7.36;100.00;96391.41;5182052;28;20686;-63
2021/11/04 03:22:29;;;;;;;3.70;3.50;;;6.40;99.90;;;7.27;100.00;96393.53;5183655;28;20620;-62
2021/11/04 03:25:02;;;;;;;4.13;3.83;;;6.20;99.90;;;7.17;100.00;96393.09;5189379;28;20199;-63
2021/11/04 03:27:40;;;;;;;3.77;3.57;;;6.20;99.90;;;6.83;100.00;96398.28;5183799;28;20538;-63
2021/11/04 03:30:17;;;;;;;3.80;3.60;;;6.00;99.90;;;6.77;100.00;96393.78;5186454;28;20595;-62
2021/11/04 03:32:52;;;;;;;3.93;3.70;;;6.00;99.90;;;6.80;100.00;96398.13;5184073;28;20558;-63
2021/11/04 03:35:28;;;;;;;4.00;3.73;;;5.90;99.90;;;6.72;100.00;96386.72;5184530;28;20209;-62
2021/11/04 03:38:03;;;;;;;4.30;4.00;;;5.80;99.90;;;6.65;100.00;96394.88;5190288;28;20310;-63
2021/11/04 03:40:37;;;;;;;4.27;4.07;;;5.90;99.90;;;6.60;100.00;96396.31;5178898;28;20324;-63
2021/11/04 03:43:12;;;;;;;4.80;4.50;;;5.80;99.90;;;6.37;100.00;96387.56;5188229;28;20206;-63
2021/11/04 03:45:46;;;;;;;4.37;4.13;;;5.70;99.90;;;6.44;100.00;96389.59;5184395;28;20213;-63
2021/11/04 03:48:19;;;;;;;4.87;4.47;;;5.60;99.90;;;6.41;100.00;96386.91;5186416;28;20286;-63
2021/11/04 03:50:55;;;;;;;4.97;4.63;;;5.70;99.90;;;6.50;100.00;96395.00;5181722;28;20222;-63
2021/11/04 03:53:29;;;;;;;5.50;5.10;;;5.80;99.90;;;6.46;100.00;96393.97;5185703;28;20202;-63
2021/11/04 03:56:02;;;;;;;5.70;5.30;;;5.70;99.90;;;6.43;100.00;96395.47;5184239;28;20209;-63
2021/11/04 03:58:40;;;;;;;5.40;5.00;;;5.70;99.90;;;6.35;100.00;96400.19;5184080;28;20198;-64
2021/11/04 04:01:14;;;;;;;5.80;5.30;;;5.60;99.90;;;6.37;100.00;96398.59;5182555;28;20708;-63
2021/11/04 04:03:47;;;;;;;6.40;5.90;;;5.60;99.90;;;6.42;100.00;96398.84;5184395;28;20640;-63
2021/11/04 04:06:23;;;;;;;5.77;5.27;;;5.60;99.90;;;6.35;100.00;96400.19;5182305;28;20202;-64
2021/11/04 04:08:57;;;;;;;6.23;5.73;;;5.60;99.90;;;6.32;100.00;96405.09;5181625;28;20289;-64
2021/11/04 04:11:30;;;;;;;6.30;5.80;;;5.60;99.90;;;6.35;100.00;96404.38;5182394;28;20230;-64
2021/11/04 04:14:04;;;;;;;6.50;5.90;;;5.60;99.90;;;6.46;100.00;96406.66;5182540;28;20655;-64
2021/11/04 04:16:37;;;;;;;6.70;6.10;;;5.60;99.90;;;6.49;100.00;96414.41;5182507;28;20201;-64
2021/11/04 04:19:11;;;;;;;6.47;5.97;;;5.70;99.90;;;6.46;100.00;96421.00;5182529;28;20662;-64
2021/11/04 04:21:44;;;;;;;6.57;5.97;;;5.60;99.90;;;6.45;100.00;96421.81;5183258;28;20260;-62
2021/11/04 04:24:17;;;;;;;6.47;5.87;;;5.60;99.90;;;6.40;100.00;96423.25;5184526;28;20207;-64
2021/11/04 04:26:50;;;;;;;6.93;6.30;;;5.60;99.90;;;6.32;100.00;96433.91;5180619;28;20763;-63
2021/11/04 04:29:24;;;;;;;6.93;6.20;;;5.60;99.90;;;6.31;100.00;96429.59;5181002;28;20202;-64
2021/11/04 04:31:57;;;;;;;6.53;6.03;;;5.60;99.90;;;6.31;100.00;96426.19;5182612;28;20206;-64
2021/11/04 04:34:30;;;;;;;6.40;5.90;;;5.60;99.90;;;6.32;100.00;96426.28;5197531;28;20742;-64
2021/11/04 04:37:04;;;;;;;7.27;6.57;;;5.60;99.90;;;6.35;100.00;96420.47;5200127;28;20297;-64
2021/11/04 04:39:37;;;;;;;7.13;6.53;;;5.60;99.90;;;6.36;100.00;96426.44;5199362;28;20236;-63
2021/11/04 04:42:10;;;;;;;7.83;6.50;;;5.50;99.90;;;6.37;100.00;96423.09;5191325;28;20198;-64
2021/11/04 04:44:45;;;;;;;7.10;6.40;;;5.60;99.90;;;6.36;100.00;96422.22;5198358;28;20297;-64
2021/11/04 04:47:18;;;;;;;8.03;7.23;;;5.60;99.90;;;6.36;100.00;96432.38;5184730;28;20205;-63
2021/11/04 04:49:51;;;;;;;8.77;7.30;;;5.50;99.90;;;6.34;100.00;96430.56;5185324;28;20229;-64
2021/11/04 04:52:24;;;;;;;8.13;7.43;;;5.60;99.90;;;6.35;100.00;96433.16;5185996;28;20208;-64
2021/11/04 04:54:57;;;;;;;8.10;7.30;;;5.60;99.90;;;6.32;100.00;96441.53;5187768;28;20702;-63
2021/11/04 04:57:31;;;;;;;8.50;7.70;;;5.60;99.90;;;6.35;100.00;96440.78;5187018;28;20203;-64
2021/11/04 05:00:12;;;;;;;8.50;7.70;;;5.60;99.90;;;6.34;100.00;96445.78;5186202;28;20218;-63
2021/11/04 05:02:45;;;;;;;8.23;7.43;;;5.60;99.90;;;6.38;100.00;96447.66;5187534;28;20230;-63
2021/11/04 05:05:18;;;;;;;10.07;8.60;;;5.60;99.90;;;6.43;100.00;96453.84;5180361;28;20221;-65
2021/11/04 05:07:51;;;;;;;9.40;8.40;;;5.60;99.90;;;6.39;100.00;96457.03;5187027;28;20198;-64
2021/11/04 05:10:24;;;;;;;8.90;8.10;;;5.60;99.90;;;6.36;100.00;96456.91;5193698;28;20222;-65
2021/11/04 05:12:58;;;;;;;10.03;8.57;;;5.60;99.90;;;6.42;100.00;96462.28;5194348;28;20320;-63
2021/11/04 05:15:33;;;;;;;9.40;8.50;;;5.60;99.90;;;6.45;100.00;96467.50;5194241;28;20202;-64
2021/11/04 05:18:08;;;;;;;8.73;7.93;;;5.60;99.90;;;6.41;100.00;96466.47;5195403;28;20574;-64
2021/11/04 05:20:41;;;;;;;8.60;7.80;;;5.60;99.90;;;6.37;100.00;96468.78;5192715;28;20222;-65
2021/11/04 05:23:14;;;;;;;7.87;7.17;;;5.60;99.90;;;6.29;100.00;96470.91;5192684;28;20201;-65
2021/11/04 05:25:47;;;;;;;7.37;6.67;;;5.60;99.90;;;6.27;100.00;96473.41;5184499;28;20206;-65
2021/11/04 05:28:20;;;;;;;7.63;6.93;;;5.60;99.90;;;6.30;100.00;96476.09;5185147;28;20217;-64
2021/11/04 05:30:55;;;;;;;7.40;6.73;;;5.60;99.90;;;6.25;100.00;96485.13;5187278;28;20316;-65
2021/11/04 05:33:28;;;;;;;7.50;6.80;;;5.50;99.90;;;6.25;100.00;96495.25;5187983;28;20225;-64
2021/11/04 05:36:01;;;;;;;8.20;7.40;;;5.50;99.90;;;6.23;100.00;96491.78;5183534;28;20228;-63
2021/11/04 05:38:34;;;;;;;7.30;6.60;;;5.50;99.90;;;6.18;100.00;96488.16;5187673;28;20201;-64
2021/11/04 05:41:07;;;;;;;6.77;6.07;;;5.50;99.90;;;6.19;100.00;96502.56;5189112;28;20230;-64
2021/11/04 05:43:40;;;;;;;7.50;6.80;;;5.40;99.90;;;6.25;100.00;96507.94;5186582;28;20213;-63
2021/11/04 05:46:15;;;;;;;6.93;6.33;;;5.50;99.90;;;6.28;100.00;96508.09;5186528;28;20198;-64
2021/11/04 05:48:48;;;;;;;7.23;6.53;;;5.50;99.90;;;6.28;100.00;96525.00;5193113;28;20202;-64
2021/11/04 05:51:21;;;;;;;7.03;6.33;;;5.50;99.90;;;6.23;100.00;96523.88;5188587;28;20236;-65
2021/11/04 05:53:54;;;;;;;8.27;7.57;;;5.50;99.90;;;6.23;100.00;96526.41;5181268;28;20209;-64
2021/11/04 05:56:27;;;;;;;8.60;7.23;;;5.50;99.90;;;6.26;100.00;96522.38;5179271;28;20579;-63
2021/11/04 05:59:00;;;;;;;8.37;7.57;;;5.50;99.90;;;6.28;100.00;96528.41;5183587;28;20579;-63
2021/11/04 06:01:34;;;;;;;8.97;8.13;;;5.50;99.90;;;6.32;100.00;96527.78;5179964;28;20226;-64
2021/11/04 06:04:07;;;;;;;9.33;7.77;;;5.50;99.90;;;6.27;100.00;96539.34;5180514;28;20292;-64
2021/11/04 06:06:40;;;;;;;7.57;6.87;;;5.50;99.90;;;6.28;100.00;96540.22;5183169;28;20195;-64
2021/11/04 06:09:13;;;;;;;8.43;7.53;;;5.60;99.90;;;6.28;100.00;96546.16;5179168;28;20644;-64
2021/11/04 06:11:46;;;;;;;8.43;7.63;;;5.60;99.90;;;6.26;100.00;96542.66;5183991;28;20317;-63
2021/11/04 06:14:19;;;;;;;8.90;8.03;;;5.50;99.90;;;6.27;100.00;96544.44;5190832;28;20213;-64
2021/11/04 06:16:54;;;;;;;9.10;8.13;;;5.50;99.90;;;6.29;100.00;96541.97;5188902;28;20195;-64
2021/11/04 06:19:27;;;;;;;8.83;7.80;;;5.60;99.90;;;6.30;100.00;96554.75;5187643;28;20586;-64
2021/11/04 06:22:00;;;;;;;8.27;7.47;;;5.50;99.90;;;6.32;100.00;96558.22;5185385;28;20209;-65
2021/11/04 06:24:33;;;;;;;7.97;7.17;;;5.60;99.90;;;6.31;100.00;96561.53;5182971;28;20203;-65
2021/11/04 06:27:06;;;;;;;8.80;7.90;;;5.60;99.90;;;6.30;100.00;96564.88;5185575;28;20217;-64
2021/11/04 06:29:39;;;;;;;9.30;8.40;;;5.60;99.90;;;6.29;100.00;96558.03;5185520;28;20195;-65
2021/11/04 06:32:13;;;;;;;9.47;8.43;;;5.60;99.90;;;6.36;100.00;96568.53;5186868;28;20222;-64
2021/11/04 06:34:46;;;;;;;12.97;9.97;;;5.70;99.90;;;6.39;100.00;96576.31;5183433;28;20198;-64
2021/11/04 06:37:19;;;;;;;10.90;9.63;;;5.60;99.90;;;6.36;100.00;96577.03;5179082;28;20285;-64
2021/11/04 06:39:52;;;;;;;13.90;10.17;;;5.60;99.90;;;6.33;100.00;96589.56;5183478;28;20232;-64
2021/11/04 06:42:26;;;;;;;11.83;9.67;;;5.60;99.90;;;6.34;100.00;96580.28;5183760;28;20205;-65
2021/11/04 06:44:59;;;;;;;10.27;9.20;;;5.60;99.90;;;6.30;100.00;96590.25;5192840;28;20194;-65
2021/11/04 06:47:39;;;;;;;13.33;9.90;;;5.60;99.90;;;6.25;100.00;96590.81;5181108;28;20203;-64
2021/11/04 06:50:12;;;;;;;11.10;9.60;;;5.50;99.90;;;6.27;100.00;96585.03;5183864;28;20225;-64
2021/11/04 06:52:50;;;;;;;12.50;9.90;;;5.60;99.90;;;6.34;100.00;96598.03;5183751;28;20223;-64
2021/11/04 06:55:28;;;;;;;12.70;10.47;;;5.60;99.90;;;6.37;100.00;96601.59;5174167;28;20206;-64
2021/11/04 06:58:04;;;;;;;12.10;10.30;;;5.70;99.90;;;6.39;100.00;96610.16;5180587;28;20315;-64
2021/11/04 07:00:38;;;;;;;12.77;10.83;;;5.70;99.90;;;6.41;100.00;96608.59;5189843;28;20313;-64
2021/11/04 07:03:21;;;;;;;14.70;10.23;;;5.70;99.90;;;6.42;100.00;96614.53;5187292;28;20310;-64
2021/11/04 07:05:59;;;;;;;13.87;10.67;;;5.70;99.90;;;6.49;100.00;96619.13;5180770;28;20581;-63
2021/11/04 07:08:39;;;;;;;13.43;9.93;;;5.70;99.90;;;6.50;100.00;96623.44;5180521;28;20198;-64
2021/11/04 07:11:12;;;;;;;10.90;9.23;;;5.80;99.90;;;6.53;100.00;96631.19;5188843;28;20230;-64
2021/11/04 07:13:47;;;;;;;10.27;9.00;;;5.80;99.90;;;6.54;100.00;96626.19;5194500;28;20564;-64
2021/11/04 07:16:22;;;;;;;9.57;8.33;;;5.80;99.90;;;6.52;100.00;96637.06;5187403;28;20677;-66
2021/11/04 07:18:59;;;;;;;9.87;8.87;;;5.80;99.90;;;6.56;100.00;96640.66;5184673;28;22004;-64
2021/11/04 07:21:43;;;;;;;10.40;8.77;;;5.70;99.90;;;6.58;100.00;96644.13;5187399;28;20214;-64
2021/11/04 07:24:29;;;;;;;8.80;7.90;;;5.80;99.90;;;6.59;100.00;96645.88;5188357;28;20210;-64
2021/11/04 07:27:30;;;;;;;8.23;7.40;;;5.80;99.90;;;6.59;100.00;96653.50;5183013;28;20202;-64
2021/11/04 07:30:09;;;;;;;11.03;8.23;;;5.80;99.90;;;6.57;100.00;96655.94;5181334;28;20453;-65
2021/11/04 07:32:50;;;;;;;8.30;7.33;;;5.80;99.90;;;6.54;100.00;96656.66;5182934;28;20226;-64
2021/11/04 07:35:28;;;;;;;8.53;7.63;;;5.80;99.90;;;6.56;100.00;96663.50;5185000;28;20305;-65
2021/11/04 07:38:02;;;;;;;7.70;7.00;;;5.90;99.90;;;6.64;100.00;96670.72;5192416;28;20201;-65
2021/11/04 07:40:35;;;;;;;8.40;7.60;;;5.80;99.90;;;6.59;100.00;96677.22;5182074;28;20245;-65
2021/11/04 07:43:09;;;;;;;7.33;6.67;;;5.80;99.90;;;6.63;100.00;96679.09;5187379;28;20194;-65
2021/11/04 07:45:42;;;;;;;8.80;7.90;;;5.80;99.90;;;6.57;100.00;96671.16;5186254;28;20206;-65
2021/11/04 07:48:15;;;;;;;7.60;6.90;;;5.80;99.90;;;6.58;100.00;96678.00;5180461;28;20202;-65
2021/11/04 07:50:50;;;;;;;7.03;6.47;;;5.80;99.90;;;6.66;100.00;96681.81;5187133;28;20580;-65
2021/11/04 07:53:23;;;;;;;7.60;6.90;;;5.70;99.90;;;6.59;100.00;96686.50;5181010;28;20309;-65
2021/11/04 07:55:57;;;;;;;7.13;6.53;;;5.70;99.90;;;6.59;100.00;96679.75;5189140;28;20208;-65
2021/11/04 07:58:30;;;;;;;7.87;7.17;;;5.70;99.90;;;6.62;100.00;96684.13;5186835;28;20238;-64
2021/11/04 08:01:03;;;;;;;7.13;6.53;;;5.80;99.90;;;6.60;100.00;96691.63;5189550;28;20226;-65
2021/11/04 08:03:43;;;;;;;7.33;6.63;;;5.90;99.90;;;6.63;100.00;96685.84;5190679;28;20720;-65
2021/11/04 08:06:17;;;;;;;7.10;6.40;;;5.80;99.90;;;6.61;100.00;96693.41;5179002;28;20206;-64
2021/11/04 08:08:51;;;;;;;7.50;6.80;;;5.80;99.90;;;6.64;100.00;96692.66;5178582;28;20210;-64
2021/11/04 08:11:23;;;;;;;7.43;6.83;;;5.90;99.90;;;6.65;100.00;96690.22;5179169;28;20702;-64
2021/11/04 08:13:57;;;;;;;9.97;9.03;;;5.90;99.90;;;6.66;100.00;96696.16;5177086;28;20522;-64
2021/11/04 08:16:30;;;;;;;18.93;17.00;;;5.90;99.90;;;6.69;100.00;96697.19;5183023;28;20293;-64
2021/11/04 08:19:03;;;;;;;8.73;8.00;;;5.90;99.90;;;6.75;100.00;96697.56;5184599;28;20198;-64
2021/11/04 08:21:37;;;;;;;8.47;7.70;;;5.90;99.90;;;6.84;100.00;96692.06;5193088;28;20298;-64
2021/11/04 08:24:11;;;;;;;7.73;7.03;;;6.00;99.90;;;6.86;100.00;96697.22;5185321;28;20193;-64
2021/11/04 08:26:44;;;;;;;7.77;7.07;;;6.00;99.90;;;6.85;100.00;96706.50;5188841;28;20238;-64
2021/11/04 08:29:17;;;;;;;7.47;6.63;;;6.00;99.90;;;6.86;100.00;96713.31;5181467;28;20202;-64
2021/11/04 08:31:50;;;;;;;6.67;6.07;;;6.00;99.90;;;6.82;100.00;96705.50;5189372;28;20233;-64
2021/11/04 08:34:23;;;;;;;8.03;7.33;;;6.00;99.90;;;6.79;100.00;96720.56;5188514;28;20558;-64
2021/11/04 08:36:58;;;;;;;7.10;6.50;;;6.00;99.90;;;6.87;100.00;96711.69;5187910;28;20198;-64
2021/11/04 08:39:31;;;;;;;7.77;7.17;;;6.00;99.90;;;6.88;100.00;96713.41;5186148;28;20232;-64
2021/11/04 08:42:06;;;;;;;7.63;6.93;;;6.00;99.90;;;6.92;100.00;96710.22;5187940;28;20289;-64
2021/11/04 08:44:39;;;;;;;7.13;6.63;;;6.10;99.90;;;6.95;100.00;96707.84;5185030;28;20293;-64
2021/11/04 08:47:12;;;;;;;7.87;7.17;;;6.10;99.90;;;7.01;100.00;96718.38;5187279;28;20197;-64
2021/11/04 08:49:45;;;;;;;8.13;7.43;;;6.20;99.90;;;6.97;100.00;96719.84;5184689;28;20320;-64
2021/11/04 08:52:20;;;;;;;6.47;5.97;;;6.20;99.90;;;7.05;100.00;96721.94;5186636;28;20222;-64
2021/11/04 08:54:53;;;;;;;7.20;6.70;;;6.20;99.90;;;7.04;100.00;96732.84;5187504;28;20198;-64
2021/11/04 08:57:26;;;;;;;6.30;5.80;;;6.20;99.90;;;7.01;100.00;96731.06;5182464;28;20297;-64
2021/11/04 08:59:59;;;;;;;6.70;6.20;;;6.10;99.90;;;7.06;100.00;96734.69;5186246;28;20218;-65
2021/11/04 09:02:33;;;;;;;6.90;6.37;;;6.20;99.90;;;7.06;100.00;96734.69;5185586;28;20293;-65
2021/11/04 09:05:08;;;;;;;8.23;7.53;;;6.20;99.90;;;7.14;100.00;96738.50;5183297;28;20587;-65
2021/11/04 09:07:44;;;;;;;7.67;7.07;;;6.30;99.90;;;7.17;100.00;96737.78;5182463;28;20212;-65
2021/11/04 09:10:20;;;;;;;7.60;7.00;;;6.30;99.90;;;7.20;100.00;96738.81;5181691;28;20253;-65
2021/11/04 09:12:54;;;;;;;7.33;6.73;;;6.30;99.90;;;7.25;100.00;96735.66;5183202;28;20226;-65
2021/11/04 09:15:27;;;;;;;7.50;6.87;;;6.40;99.90;;;7.30;100.00;96745.28;5185287;28;20209;-65
2021/11/04 09:18:01;;;;;;;6.40;6.00;;;6.50;99.90;;;7.30;100.00;96741.84;5180337;28;20294;-65
2021/11/04 09:20:35;;;;;;;6.80;6.20;;;6.40;99.90;;;7.36;100.00;96748.13;5185803;28;20305;-65
2021/11/04 09:23:10;;;;;;;5.73;5.33;;;6.50;99.90;;;7.35;100.00;96740.41;5189987;28;20570;-65
2021/11/04 09:25:43;;;;;;;5.90;5.50;;;6.40;99.90;;;7.31;100.00;96756.31;5190308;28;20205;-65
2021/11/04 09:28:16;;;;;;;5.97;5.47;;;6.40;99.90;;;7.30;100.00;96759.66;5184115;28;20203;-65
2021/11/04 09:30:49;;;;;;;5.60;5.20;;;6.50;99.90;;;7.34;100.00;96761.53;5192012;28;20701;-65
2021/11/04 09:33:22;;;;;;;5.03;4.73;;;6.40;99.90;;;7.23;100.00;96769.47;5178491;28;20218;-65
2021/11/04 09:35:55;;;;;;;5.50;5.10;;;6.30;99.90;;;7.32;100.00;96778.38;5192455;28;20213;-65
2021/11/04 09:38:31;;;;;;;5.93;5.53;;;6.40;99.90;;;7.19;100.00;96787.03;5184692;28;20203;-64
2021/11/04 09:41:04;;;;;;;4.43;4.13;;;6.40;99.90;;;7.17;100.00;96794.56;5189206;28;20221;-65
2021/11/04 09:43:39;;;;;;;4.80;4.40;;;6.40;99.90;;;7.20;100.00;96798.94;5186939;28;20198;-65
2021/11/04 09:46:12;;;;;;;3.80;3.60;;;6.30;99.90;;;7.18;100.00;96806.50;5190117;28;20206;-65
2021/11/04 09:48:50;;;;;;;4.40;4.10;;;6.30;99.90;;;7.26;100.00;96813.63;5184568;28;20212;-64
2021/11/04 09:51:24;;;;;;;3.63;3.43;;;6.30;99.90;;;7.20;100.00;96820.13;5185592;28;20233;-65
2021/11/04 09:53:58;;;;;;;3.77;3.57;;;6.20;99.90;;;7.13;100.00;96820.63;5187728;28;20219;-65
2021/11/04 09:56:33;;;;;;;3.90;3.67;;;6.20;99.90;;;7.14;100.00;96824.03;5188124;28;20672;-65
2021/11/04 09:59:07;;;;;;;3.87;3.57;;;6.20;99.90;;;7.10;100.00;96825.53;5188756;28;20206;-65
2021/11/04 10:01:46;;;;;;;2.77;2.67;;;6.10;99.90;;;7.10;100.00;96830.63;5184505;28;20229;-65
2021/11/04 10:04:33;;;;;;;2.93;2.80;;;6.10;99.90;;;7.09;100.00;96825.44;5183846;28;20194;-65
2021/11/04 10:07:07;;;;;;;2.90;2.80;;;6.20;99.90;;;7.03;100.00;96825.13;5186865;28;20210;-64
2021/11/04 10:09:43;;;;;;;2.87;2.67;;;6.10;99.90;;;7.04;100.00;96832.84;5191744;28;20304;-65
2021/11/04 10:12:16;;;;;;;2.30;2.20;;;6.10;99.90;;;6.98;100.00;96832.47;5186352;28;20210;-65
2021/11/04 10:14:49;;;;;;;2.67;2.57;;;6.00;99.90;;;7.00;100.00;96831.78;5188271;28;20225;-65
2021/11/04 10:17:27;;;;;;;2.67;2.47;;;6.00;99.90;;;6.96;100.00;96839.16;5188342;28;20289;-65
2021/11/04 10:20:13;;;;;;;2.60;2.50;;;6.10;99.90;;;6.93;100.00;96844.09;5186748;28;20576;-65
2021/11/04 10:23:00;;;;;;;2.90;2.80;;;6.10;99.90;;;6.94;100.00;96843.28;5193017;28;20206;-65
2021/11/04 10:25:35;;;;;;;3.00;2.90;;;6.20;99.90;;;7.02;100.00;96847.13;5188536;28;20774;-65
2021/11/04 10:28:28;;;;;;;2.77;2.67;;;6.10;99.90;;;7.04;100.00;96860.78;5183256;28;20309;-65
2021/11/04 10:31:01;;;;;;;2.77;2.57;;;6.10;99.90;;;7.05;100.00;96862.53;5186215;28;20313;-65
2021/11/04 10:33:38;;;;;;;3.23;3.03;;;6.20;99.90;;;7.08;100.00;96860.16;5190209;28;20679;-65
2021/11/04 10:36:15;;;;;;;3.20;3.00;;;6.30;99.90;;;7.16;100.00;96869.06;5184139;28;20201;-65
2021/11/04 10:38:52;;;;;;;3.20;3.10;;;6.30;99.90;;;7.19;100.00;96874.31;5183180;28;20198;-65
2021/11/04 10:41:30;;;;;;;3.00;2.90;;;6.30;99.90;;;7.21;100.00;96877.81;5189147;28;20214;-65
2021/11/04 10:44:05;;;;;;;5.13;4.73;;;6.30;99.90;;;7.23;100.00;96878.75;5178924;28;20214;-65
2021/11/04 10:46:44;;;;;;;4.50;4.20;;;6.40;99.90;;;7.28;100.00;96879.00;5185935;28;20674;-65
2021/11/04 10:49:19;;;;;;;4.07;3.87;;;6.40;99.90;;;7.27;100.00;96889.06;5181586;28;20660;-65
2021/11/04 10:51:57;;;;;;;4.30;3.90;;;6.40;99.90;;;7.36;100.00;96885.38;5185219;28;20230;-65